createdAt,value
2024-01-11T00:01:48.768Z,-5.46
2024-01-11T00:04:15.767Z,-5.38
2024-01-11T00:06:46.475Z,-5.36
2024-01-11T00:09:13.639Z,-5.34
2024-01-11T00:11:40.574Z,-5.33
2024-01-11T00:14:08.468Z,-5.43
2024-01-11T00:16:35.556Z,-5.34
2024-01-11T00:19:02.463Z,-5.28
2024-01-11T00:21:29.223Z,-5.26
2024-01-11T00:23:55.931Z,-5.40
2024-01-11T00:26:22.700Z,-5.36
2024-01-11T00:28:49.666Z,-5.38
2024-01-11T00:31:16.555Z,-5.40
2024-01-11T00:33:43.416Z,-5.36
2024-01-11T00:36:10.254Z,-5.33
2024-01-11T00:38:37.210Z,-5.34
2024-01-11T00:41:04.194Z,-5.61
2024-01-11T00:43:31.123Z,-5.91
2024-01-11T00:45:57.934Z,-5.89
2024-01-11T00:48:24.894Z,-5.68
2024-01-11T00:50:51.636Z,-5.60
2024-01-11T00:53:18.451Z,-5.54
2024-01-11T00:55:45.486Z,-5.46
2024-01-11T00:58:12.198Z,-5.41
2024-01-11T01:00:42.009Z,-5.44
2024-01-11T01:03:08.759Z,-5.42
2024-01-11T01:05:35.524Z,-5.45
2024-01-11T01:08:02.435Z,-5.43
2024-01-11T01:10:29.207Z,-5.44
2024-01-11T01:12:55.943Z,-6.04
2024-01-11T01:15:22.748Z,-5.59
2024-01-11T01:17:49.615Z,-5.76
2024-01-11T01:20:16.584Z,-5.73
2024-01-11T01:22:43.352Z,-5.90
2024-01-11T01:25:10.150Z,-5.93
2024-01-11T01:27:36.900Z,-6.15
2024-01-11T01:30:04.695Z,-6.44
2024-01-11T01:32:31.615Z,-6.07
2024-01-11T01:34:58.625Z,-6.32
2024-01-11T01:37:25.387Z,-6.10
2024-01-11T01:39:52.013Z,-6.12
2024-01-11T01:42:18.734Z,-6.04
2024-01-11T01:44:45.443Z,-6.08
2024-01-11T01:47:12.592Z,-6.28
2024-01-11T01:49:40.197Z,-6.25
2024-01-11T01:52:08.843Z,-5.91
2024-01-11T01:54:36.150Z,-6.05
2024-01-11T01:57:04.471Z,-5.88
2024-01-11T01:59:32.344Z,-5.76
2024-01-11T02:01:59.791Z,-5.65
2024-01-11T02:04:26.661Z,-5.59
2024-01-11T02:06:55.124Z,-5.69
2024-01-11T02:09:21.780Z,-5.63
2024-01-11T02:11:49.124Z,-5.44
2024-01-11T02:14:15.996Z,-5.47
2024-01-11T02:16:42.686Z,-5.40
2024-01-11T02:19:13.934Z,-5.38
2024-01-11T02:21:44.592Z,-5.45
2024-01-11T02:24:11.548Z,-5.43
2024-01-11T02:26:58.226Z,-5.62
2024-01-11T02:29:25.062Z,-5.71
2024-01-11T02:31:51.891Z,-5.59
2024-01-11T02:34:19.288Z,-5.90
2024-01-11T02:36:46.483Z,-5.87
2024-01-11T02:39:15.758Z,-5.85
2024-01-11T02:41:43.261Z,-6.02
2024-01-11T02:44:12.336Z,-6.01
2024-01-11T02:46:39.141Z,-6.04
2024-01-11T02:49:06.013Z,-5.98
2024-01-11T02:51:32.755Z,-6.01
2024-01-11T02:53:59.425Z,-5.77
2024-01-11T02:56:26.130Z,-5.83
2024-01-11T02:58:52.887Z,-5.95
2024-01-11T03:01:19.682Z,-6.02
2024-01-11T03:03:47.461Z,-6.26
2024-01-11T03:06:14.266Z,-6.34
2024-01-11T03:08:41.485Z,-6.23
2024-01-11T03:11:08.211Z,-6.40
2024-01-11T03:13:34.928Z,-6.27
2024-01-11T03:16:01.708Z,-6.56
2024-01-11T03:18:28.514Z,-6.47
2024-01-11T03:20:55.233Z,-6.35
2024-01-11T03:23:21.975Z,-6.35
2024-01-11T03:25:48.670Z,-6.46
2024-01-11T03:28:15.459Z,-6.38
2024-01-11T03:30:42.323Z,-6.45
2024-01-11T03:33:09.280Z,-6.56
2024-01-11T03:35:36.533Z,-6.23
2024-01-11T03:38:03.434Z,-6.36
2024-01-11T03:40:30.142Z,-6.40
2024-01-11T03:42:57.032Z,-6.24
2024-01-11T03:45:23.734Z,-6.20
2024-01-11T03:47:50.476Z,-6.08
2024-01-11T03:50:17.471Z,-6.29
2024-01-11T03:52:44.283Z,-6.18
2024-01-11T03:55:10.938Z,-6.17
2024-01-11T03:57:37.628Z,-6.18
2024-01-11T04:00:10.804Z,-6.20
2024-01-11T04:02:38.371Z,-6.16
2024-01-11T04:05:05.731Z,-6.30
2024-01-11T04:07:32.453Z,-6.01
2024-01-11T04:09:59.202Z,-6.11
2024-01-11T04:12:25.994Z,-6.06
2024-01-11T04:14:52.790Z,-6.37
2024-01-11T04:17:19.592Z,-6.15
2024-01-11T04:19:46.346Z,-6.23
2024-01-11T04:22:13.000Z,-6.02
2024-01-11T04:24:39.721Z,-6.10
2024-01-11T04:27:06.364Z,-6.09
2024-01-11T04:29:33.052Z,-5.97
2024-01-11T04:31:59.821Z,-6.00
2024-01-11T04:34:26.783Z,-6.02
2024-01-11T04:36:53.541Z,-5.95
2024-01-11T04:39:20.325Z,-5.83
2024-01-11T04:41:47.124Z,-5.77
2024-01-11T04:44:13.903Z,-5.86
2024-01-11T04:46:40.648Z,-5.99
2024-01-11T04:49:07.475Z,-6.00
2024-01-11T04:51:34.208Z,-5.87
2024-01-11T04:54:00.871Z,-5.78
2024-01-11T04:56:27.721Z,-5.77
2024-01-11T04:58:54.529Z,-5.77
2024-01-11T05:01:21.353Z,-5.91
2024-01-11T05:03:50.386Z,-5.90
2024-01-11T05:06:18.365Z,-6.03
2024-01-11T05:08:46.178Z,-5.97
2024-01-11T05:11:20.339Z,-5.89
2024-01-11T05:13:47.729Z,-5.80
2024-01-11T05:16:30.114Z,-5.82
2024-01-11T05:19:01.418Z,-6.04
2024-01-11T05:21:28.212Z,-5.90
2024-01-11T05:23:55.113Z,-6.08
2024-01-11T05:26:22.053Z,-6.15
2024-01-11T05:28:49.191Z,-6.18
2024-01-11T05:31:17.732Z,-6.31
2024-01-11T05:33:45.388Z,-6.18
2024-01-11T05:36:12.668Z,-6.01
2024-01-11T05:38:40.600Z,-6.14
2024-01-11T05:41:07.810Z,-6.13
2024-01-11T05:43:34.577Z,-6.01
2024-01-11T05:46:01.322Z,-6.03
2024-01-11T05:48:28.086Z,-6.04
2024-01-11T05:50:54.887Z,-5.96
2024-01-11T05:53:21.667Z,-5.84
2024-01-11T05:55:48.503Z,-5.82
2024-01-11T05:58:15.224Z,-5.98
2024-01-11T06:00:42.026Z,-6.16
2024-01-11T06:03:09.459Z,-6.22
2024-01-11T06:05:36.296Z,-6.03
2024-01-11T06:08:03.144Z,-6.05
2024-01-11T06:10:30.086Z,-6.20
2024-01-11T06:12:56.824Z,-6.13
2024-01-11T06:15:23.705Z,-6.01
2024-01-11T06:17:50.465Z,-6.06
2024-01-11T06:20:17.285Z,-6.18
2024-01-11T06:22:46.192Z,-6.04
2024-01-11T06:25:13.296Z,-6.12
2024-01-11T06:27:43.524Z,-5.99
2024-01-11T06:30:10.638Z,-5.83
2024-01-11T06:32:40.634Z,-5.95
2024-01-11T06:35:10.955Z,-5.83
2024-01-11T06:37:41.124Z,-5.91
2024-01-11T06:40:08.466Z,-5.87
2024-01-11T06:42:35.734Z,-5.83
2024-01-11T06:45:12.655Z,-5.75
2024-01-11T06:47:40.391Z,-5.63
2024-01-11T06:50:10.559Z,-5.71
2024-01-11T06:52:40.582Z,-5.66
2024-01-11T06:55:13.011Z,-5.46
2024-01-11T06:57:39.771Z,-5.56
2024-01-11T07:00:07.781Z,-5.55
2024-01-11T07:02:34.550Z,-5.31
2024-01-11T07:05:04.325Z,-5.47
2024-01-11T07:07:31.348Z,-5.46
2024-01-11T07:09:58.293Z,-5.58
2024-01-11T07:12:25.491Z,-5.58
2024-01-11T07:14:52.760Z,-5.65
2024-01-11T07:17:21.386Z,-5.67
2024-01-11T07:19:48.590Z,-5.60
2024-01-11T07:22:15.362Z,-5.58
2024-01-11T07:24:44.761Z,-5.44
2024-01-11T07:27:11.505Z,-5.40
2024-01-11T07:29:38.264Z,-5.45
2024-01-11T07:32:05.694Z,-5.22
2024-01-11T07:34:33.420Z,-5.04
2024-01-11T07:37:00.225Z,-5.06
2024-01-11T07:39:26.985Z,-5.11
2024-01-11T07:41:53.759Z,-4.91
2024-01-11T07:44:20.583Z,-4.87
2024-01-11T07:46:53.139Z,-5.03
2024-01-11T07:49:22.321Z,-4.92
2024-01-11T07:51:49.872Z,-5.07
2024-01-11T07:54:16.688Z,-4.85
2024-01-11T07:56:44.241Z,-4.72
2024-01-11T07:59:14.477Z,-4.84
2024-01-11T08:01:44.264Z,-4.79
2024-01-11T08:04:11.277Z,-4.90
2024-01-11T08:06:38.136Z,-4.71
2024-01-11T08:09:04.869Z,-4.68
2024-01-11T08:11:32.771Z,-4.76
2024-01-11T08:14:00.101Z,-4.77
2024-01-11T08:16:26.876Z,-4.76
2024-01-11T08:18:53.599Z,-4.50
2024-01-11T08:21:20.293Z,-4.56
2024-01-11T08:23:47.464Z,-4.54
2024-01-11T08:26:15.437Z,-4.43
2024-01-11T08:28:43.522Z,-4.34
2024-01-11T08:31:10.728Z,-4.33
2024-01-11T08:33:37.927Z,-4.37
2024-01-11T08:36:06.233Z,-4.16
2024-01-11T08:38:33.982Z,-4.28
2024-01-11T08:41:01.878Z,-4.14
2024-01-11T08:43:29.031Z,-4.10
2024-01-11T08:45:56.124Z,-4.01
2024-01-11T08:48:22.959Z,-4.24
2024-01-11T08:51:05.292Z,-3.94
2024-01-11T08:53:40.976Z,-4.12
2024-01-11T08:56:13.892Z,-3.95
2024-01-11T08:58:44.207Z,-3.85
2024-01-11T09:01:49.772Z,-3.95
2024-01-11T09:04:23.681Z,-3.82
2024-01-11T09:06:50.401Z,-3.93
2024-01-11T09:09:22.652Z,-3.83
2024-01-11T09:11:49.346Z,-4.19
2024-01-11T09:14:16.453Z,-3.86
2024-01-11T09:16:46.253Z,-4.17
2024-01-11T09:19:21.050Z,-3.84
2024-01-11T09:21:47.804Z,-3.94
2024-01-11T09:24:14.615Z,-3.92
2024-01-11T09:26:41.496Z,-3.71
2024-01-11T09:29:12.680Z,-3.46
2024-01-11T09:31:39.618Z,-3.57
2024-01-11T09:34:06.388Z,-3.65
2024-01-11T09:36:33.051Z,-3.59
2024-01-11T09:39:00.176Z,-3.65
2024-01-11T09:41:27.569Z,-3.39
2024-01-11T09:43:55.503Z,-3.53
2024-01-11T09:46:24.567Z,-3.32
2024-01-11T09:48:52.906Z,-3.28
2024-01-11T09:51:19.643Z,-3.25
2024-01-11T09:53:48.493Z,-3.28
2024-01-11T09:56:21.009Z,-3.15
2024-01-11T09:58:48.599Z,-3.14
2024-01-11T10:01:15.709Z,-3.30
2024-01-11T10:03:42.691Z,-3.18
2024-01-11T10:06:09.842Z,-3.10
2024-01-11T10:08:38.332Z,-2.89
2024-01-11T10:11:05.276Z,-2.96
2024-01-11T10:13:33.056Z,-2.92
2024-01-11T10:16:15.532Z,-2.95
2024-01-11T10:18:45.872Z,-2.87
2024-01-11T10:21:13.697Z,-2.80
2024-01-11T10:23:40.903Z,-2.83
2024-01-11T10:26:10.125Z,-2.78
2024-01-11T10:28:37.191Z,-2.66
2024-01-11T10:31:06.978Z,-2.75
2024-01-11T10:33:36.349Z,-2.30
2024-01-11T10:36:07.128Z,-2.37
2024-01-11T10:38:39.817Z,-2.26
2024-01-11T10:41:08.176Z,-2.58
2024-01-11T10:43:39.025Z,-2.53
2024-01-11T10:46:06.342Z,-2.25
2024-01-11T10:48:34.906Z,-2.55
2024-01-11T10:51:03.236Z,-2.43
2024-01-11T10:53:42.720Z,-2.31
2024-01-11T10:56:11.295Z,-2.60
2024-01-11T10:58:40.134Z,-2.37
2024-01-11T11:01:07.596Z,-2.30
2024-01-11T11:03:36.631Z,-2.22
2024-01-11T11:06:05.425Z,-2.34
2024-01-11T11:08:32.850Z,-2.45
2024-01-11T11:11:05.469Z,-2.56
2024-01-11T11:13:37.720Z,-2.40
2024-01-11T11:16:04.895Z,-2.38
2024-01-11T11:18:33.061Z,-2.45
2024-01-11T11:21:03.753Z,-2.43
2024-01-11T11:23:30.576Z,-2.58
2024-01-11T11:26:03.360Z,-2.39
2024-01-11T11:28:33.741Z,-2.58
2024-01-11T11:31:01.300Z,-2.20
2024-01-11T11:33:34.179Z,-2.15
2024-01-11T11:36:07.266Z,-2.16
2024-01-11T11:38:35.225Z,-1.84
2024-01-11T11:41:02.818Z,-1.60
2024-01-11T11:43:36.544Z,-1.52
2024-01-11T11:46:05.992Z,-1.18
2024-01-11T11:48:36.189Z,0.40
2024-01-11T11:51:10.150Z,-0.91
2024-01-11T11:53:53.028Z,-1.07
2024-01-11T11:56:21.857Z,-1.27
2024-01-11T11:58:50.662Z,-1.40
2024-01-11T12:01:17.968Z,-1.50
2024-01-11T12:03:48.843Z,-1.82
2024-01-11T12:06:16.543Z,-1.85
2024-01-11T12:08:49.252Z,-1.78
2024-01-11T12:11:21.325Z,-1.43
2024-01-11T12:13:57.175Z,-1.51
2024-01-11T12:16:23.896Z,-1.68
2024-01-11T12:18:51.313Z,-1.76
2024-01-11T12:21:18.694Z,-1.86
2024-01-11T12:23:54.935Z,-1.95
2024-01-11T12:26:25.458Z,-1.88
2024-01-11T12:28:52.868Z,-1.81
2024-01-11T12:31:20.075Z,-1.70
2024-01-11T12:33:47.293Z,-1.94
2024-01-11T12:36:14.122Z,-1.68
2024-01-11T12:38:49.960Z,-1.62
2024-01-11T12:41:21.030Z,-1.59
2024-01-11T12:43:48.874Z,-1.63
2024-01-11T12:46:16.737Z,-1.66
2024-01-11T12:48:53.037Z,-2.06
2024-01-11T12:51:23.929Z,-1.94
2024-01-11T12:53:53.481Z,-1.77
2024-01-11T12:56:20.622Z,-1.71
2024-01-11T12:58:48.040Z,-1.90
2024-01-11T13:01:14.972Z,-1.59
2024-01-11T13:03:46.138Z,-1.54
2024-01-11T13:06:13.710Z,-1.61
2024-01-11T13:08:41.711Z,-1.73
2024-01-11T13:11:09.153Z,-1.70
2024-01-11T13:13:36.891Z,-1.41
2024-01-11T13:16:20.960Z,-1.69
2024-01-11T13:19:07.973Z,-1.74
2024-01-11T13:21:40.084Z,-1.67
2024-01-11T13:24:08.042Z,-1.93
2024-01-11T13:26:36.448Z,-1.88
2024-01-11T13:29:04.369Z,-2.16
2024-01-11T13:31:31.075Z,-2.03
2024-01-11T13:33:58.156Z,-1.98
2024-01-11T13:36:29.605Z,-2.29
2024-01-11T13:39:09.062Z,-2.35
2024-01-11T13:42:00.769Z,-2.45
2024-01-11T13:44:27.508Z,-2.36
2024-01-11T13:46:57.127Z,-2.26
2024-01-11T13:49:25.046Z,-2.28
2024-01-11T13:52:00.990Z,-2.21
2024-01-11T13:54:33.483Z,-2.25
2024-01-11T13:57:00.260Z,-2.19
2024-01-11T13:59:27.586Z,-2.13
2024-01-11T14:01:56.010Z,-2.07
2024-01-11T14:04:22.772Z,-2.10
2024-01-11T14:06:51.991Z,-2.31
2024-01-11T14:09:22.405Z,-2.58
2024-01-11T14:11:49.172Z,-2.61
2024-01-11T14:14:20.238Z,-2.40
2024-01-11T14:16:52.852Z,-2.42
2024-01-11T14:19:25.836Z,-2.50
2024-01-11T14:21:57.253Z,-2.60
2024-01-11T14:24:29.808Z,-2.67
2024-01-11T14:27:05.138Z,-2.71
2024-01-11T14:29:31.900Z,-2.60
2024-01-11T14:31:58.603Z,-2.67
2024-01-11T14:34:28.385Z,-2.92
2024-01-11T14:36:55.661Z,-2.83
2024-01-11T14:39:22.529Z,-2.79
2024-01-11T14:41:49.315Z,-2.64
2024-01-11T14:44:16.502Z,-2.59
2024-01-11T14:46:43.297Z,-2.59
2024-01-11T14:49:10.098Z,-2.56
2024-01-11T14:51:36.938Z,-2.58
2024-01-11T14:54:03.628Z,-2.42
2024-01-11T14:56:31.489Z,-2.57
2024-01-11T14:58:58.349Z,-2.57
2024-01-11T15:01:25.222Z,-2.69
2024-01-11T15:03:51.931Z,-2.74
2024-01-11T15:06:18.954Z,-2.78
2024-01-11T15:08:45.895Z,-2.73
2024-01-11T15:11:12.795Z,-2.75
2024-01-11T15:13:45.782Z,-2.68
2024-01-11T15:16:12.600Z,-2.74
2024-01-11T15:18:39.417Z,-2.64
2024-01-11T15:21:06.269Z,-2.71
2024-01-11T15:23:33.236Z,-2.81
2024-01-11T15:26:00.033Z,-2.66
2024-01-11T15:28:26.941Z,-2.67
2024-01-11T15:30:53.905Z,-2.77
2024-01-11T15:33:21.088Z,-2.80
2024-01-11T15:35:48.104Z,-2.67
2024-01-11T15:38:14.907Z,-2.66
2024-01-11T15:40:41.610Z,-3.01
2024-01-11T15:43:08.321Z,-2.83
2024-01-11T15:45:36.930Z,-2.75
2024-01-11T15:48:05.094Z,-2.64
2024-01-11T15:50:32.626Z,-2.65
2024-01-11T15:52:59.805Z,-2.68
2024-01-11T15:55:26.591Z,-2.74
2024-01-11T15:57:57.678Z,-2.64
2024-01-11T16:00:25.818Z,-2.65
2024-01-11T16:02:52.687Z,-2.80
2024-01-11T16:05:19.679Z,-2.67
2024-01-11T16:07:46.599Z,-2.63
2024-01-11T16:10:13.498Z,-2.81
2024-01-11T16:12:41.258Z,-2.85
2024-01-11T16:15:08.408Z,-3.01
2024-01-11T16:17:35.183Z,-2.86
2024-01-11T16:20:02.154Z,-2.94
2024-01-11T16:22:29.081Z,-2.91
2024-01-11T16:24:55.752Z,-2.74
2024-01-11T16:27:22.413Z,-2.73
2024-01-11T16:29:50.897Z,-2.66
2024-01-11T16:32:17.738Z,-2.61
2024-01-11T16:34:44.455Z,-2.60
2024-01-11T16:37:11.194Z,-2.63
2024-01-11T16:39:38.255Z,-2.58
2024-01-11T16:42:05.220Z,-2.45
2024-01-11T16:44:32.173Z,-2.56
2024-01-11T16:46:58.849Z,-2.54
2024-01-11T16:49:25.612Z,-2.59
2024-01-11T16:51:52.418Z,-2.56
2024-01-11T16:54:19.975Z,-2.63
2024-01-11T16:56:47.548Z,-2.86
2024-01-11T16:59:14.900Z,-2.67
2024-01-11T17:01:41.817Z,-2.80
2024-01-11T17:04:10.953Z,-2.69
2024-01-11T17:06:41.000Z,-2.58
2024-01-11T17:09:07.668Z,-2.66
2024-01-11T17:11:34.776Z,-2.75
2024-01-11T17:14:01.524Z,-2.90
2024-01-11T17:16:28.182Z,-2.72
2024-01-11T17:18:55.095Z,-2.89
2024-01-11T17:21:21.795Z,-2.65
2024-01-11T17:23:48.814Z,-2.76
2024-01-11T17:26:15.551Z,-2.74
2024-01-11T17:28:42.433Z,-2.82
2024-01-11T17:31:09.139Z,-2.68
2024-01-11T17:33:36.132Z,-2.80
2024-01-11T17:36:03.246Z,-2.66
2024-01-11T17:38:30.051Z,-2.83
2024-01-11T17:40:56.760Z,-2.95
2024-01-11T17:43:23.473Z,-2.94
2024-01-11T17:45:50.276Z,-2.89
2024-01-11T17:48:17.352Z,-2.83
2024-01-11T17:50:44.179Z,-2.84
2024-01-11T17:53:11.258Z,-3.03
2024-01-11T17:55:38.165Z,-2.79
2024-01-11T17:58:04.852Z,-2.77
2024-01-11T18:00:31.596Z,-2.84
2024-01-11T18:02:58.504Z,-2.80
2024-01-11T18:05:25.781Z,-2.83
2024-01-11T18:07:54.585Z,-2.96
2024-01-11T18:10:21.269Z,-2.84
2024-01-11T18:12:47.982Z,-3.05
2024-01-11T18:15:14.700Z,-2.86
2024-01-11T18:17:41.752Z,-2.82
2024-01-11T18:20:09.403Z,-2.98
2024-01-11T18:22:37.088Z,-2.95
2024-01-11T18:25:04.409Z,-2.98
2024-01-11T18:27:31.210Z,-2.80
2024-01-11T18:29:58.120Z,-2.73
2024-01-11T18:32:24.990Z,-2.77
2024-01-11T18:34:51.744Z,-2.67
2024-01-11T18:37:18.449Z,-2.91
2024-01-11T18:39:45.174Z,-2.84
2024-01-11T18:42:11.900Z,-2.99
2024-01-11T18:44:38.780Z,-2.95
2024-01-11T18:47:05.810Z,-2.90
2024-01-11T18:49:33.557Z,-3.05
2024-01-11T18:52:00.318Z,-3.06
2024-01-11T18:54:27.086Z,-2.99
2024-01-11T18:56:53.896Z,-3.19
2024-01-11T18:59:20.676Z,-3.11
2024-01-11T19:01:48.442Z,-3.14
2024-01-11T19:04:16.124Z,-3.30
2024-01-11T19:06:42.979Z,-3.08
2024-01-11T19:09:11.140Z,-3.20
2024-01-11T19:11:37.847Z,-3.14
2024-01-11T19:14:04.594Z,-3.11
2024-01-11T19:16:31.257Z,-3.01
2024-01-11T19:18:58.299Z,-3.09
2024-01-11T19:21:25.078Z,-3.04
2024-01-11T19:23:51.930Z,-2.90
2024-01-11T19:26:18.775Z,-2.92
2024-01-11T19:28:45.572Z,-2.93
2024-01-11T19:31:12.361Z,-2.84
2024-01-11T19:33:39.068Z,-2.97
2024-01-11T19:36:06.165Z,-2.94
2024-01-11T19:38:32.962Z,-3.05
2024-01-11T19:40:59.886Z,-3.21
2024-01-11T19:43:26.559Z,-3.11
2024-01-11T19:45:53.849Z,-3.21
2024-01-11T19:48:21.532Z,-3.23
2024-01-11T19:50:48.587Z,-3.09
2024-01-11T19:53:15.460Z,-2.97
2024-01-11T19:55:42.188Z,-2.93
2024-01-11T19:58:08.865Z,-3.03
2024-01-11T20:00:35.714Z,-3.02
2024-01-11T20:03:02.506Z,-3.10
2024-01-11T20:05:29.352Z,-3.05
2024-01-11T20:07:56.201Z,-2.92
2024-01-11T20:10:22.987Z,-3.08
2024-01-11T20:12:49.746Z,-3.03
2024-01-11T20:15:16.603Z,-2.99
2024-01-11T20:17:43.332Z,-2.88
2024-01-11T20:20:10.533Z,-3.06
2024-01-11T20:22:37.338Z,-3.01
2024-01-11T20:25:07.359Z,-2.79
2024-01-11T20:27:35.690Z,-2.79
2024-01-11T20:30:02.926Z,-3.00
2024-01-11T20:32:30.032Z,-3.03
2024-01-11T20:34:56.882Z,-3.12
2024-01-11T20:37:23.630Z,-2.99
2024-01-11T20:39:50.397Z,-2.95
2024-01-11T20:42:17.255Z,-3.05
2024-01-11T20:44:44.025Z,-2.96
2024-01-11T20:47:10.846Z,-2.92
2024-01-11T20:49:37.698Z,-3.04
2024-01-11T20:52:04.702Z,-2.92
2024-01-11T20:54:31.409Z,-2.91
2024-01-11T20:56:58.160Z,-2.98
2024-01-11T20:59:25.019Z,-2.95
2024-01-11T21:01:51.724Z,-2.95
2024-01-11T21:04:18.438Z,-2.93
2024-01-11T21:06:45.728Z,-2.85
2024-01-11T21:09:12.797Z,-2.80
2024-01-11T21:11:39.648Z,-2.71
2024-01-11T21:14:06.450Z,-2.79
2024-01-11T21:16:33.153Z,-2.66
2024-01-11T21:19:00.047Z,-2.74
2024-01-11T21:21:26.853Z,-2.59
2024-01-11T21:23:53.623Z,-2.68
2024-01-11T21:26:20.336Z,-2.78
2024-01-11T21:28:47.143Z,-2.72
2024-01-11T21:31:13.880Z,-2.64
2024-01-11T21:33:44.191Z,-2.55
2024-01-11T21:36:11.903Z,-2.69
2024-01-11T21:38:38.927Z,-2.58
2024-01-11T21:41:05.960Z,-2.55
2024-01-11T21:43:32.741Z,-2.60
2024-01-11T21:45:59.405Z,-2.58
2024-01-11T21:48:26.446Z,-2.61
2024-01-11T21:50:53.444Z,-2.63
2024-01-11T21:53:20.303Z,-2.58
2024-01-11T21:55:46.978Z,-2.51
2024-01-11T21:58:13.838Z,-2.51
2024-01-11T22:00:40.540Z,-2.59
2024-01-11T22:03:07.472Z,-2.53
2024-01-11T22:05:36.105Z,-2.65
2024-01-11T22:08:02.916Z,-2.66
2024-01-11T22:10:29.583Z,-2.62
2024-01-11T22:12:56.360Z,-2.59
2024-01-11T22:15:23.037Z,-2.59
2024-01-11T22:17:49.914Z,-2.51
2024-01-11T22:20:16.972Z,-2.46
2024-01-11T22:22:43.743Z,-2.38
2024-01-11T22:25:10.510Z,-2.41
2024-01-11T22:27:37.202Z,-2.29
2024-01-11T22:30:05.137Z,-2.26
2024-01-11T22:32:31.922Z,-2.40
2024-01-11T22:34:58.604Z,-2.49
2024-01-11T22:37:25.325Z,-2.48
2024-01-11T22:39:51.984Z,-2.50
2024-01-11T22:42:18.677Z,-2.56
2024-01-11T22:44:45.453Z,-2.61
2024-01-11T22:47:12.376Z,-2.49
2024-01-11T22:49:39.298Z,-2.56
2024-01-11T22:52:07.598Z,-2.47
2024-01-11T22:54:35.122Z,-2.46
2024-01-11T22:57:02.763Z,-2.44
2024-01-11T22:59:29.585Z,-2.73
2024-01-11T23:01:56.296Z,-2.55
2024-01-11T23:04:23.161Z,-2.47
2024-01-11T23:06:49.894Z,-2.49
2024-01-11T23:09:16.574Z,-2.36
2024-01-11T23:11:43.295Z,-2.30
2024-01-11T23:14:10.177Z,-2.15
2024-01-11T23:16:36.938Z,-2.09
2024-01-11T23:19:03.884Z,-2.16
2024-01-11T23:21:30.612Z,-2.38
2024-01-11T23:23:57.401Z,-2.31
2024-01-11T23:26:24.211Z,-2.71
2024-01-11T23:28:50.906Z,-2.56
2024-01-11T23:31:17.646Z,-2.36
2024-01-11T23:33:44.583Z,-2.38
2024-01-11T23:36:12.892Z,-2.60
2024-01-11T23:38:40.276Z,-2.43
2024-01-11T23:41:08.381Z,-2.34
2024-01-11T23:43:35.371Z,-2.21
2024-01-11T23:46:02.049Z,-2.15
2024-01-11T23:48:29.278Z,-2.13
2024-01-11T23:50:56.210Z,-2.21
2024-01-11T23:53:22.971Z,-2.15
2024-01-11T23:55:49.745Z,-2.12
2024-01-11T23:58:16.417Z,-2.21
